Time;durP1;ratioP1;P1;durP2;ratioP2;P2;SDS_P1;SDS_P2;PMS_P1;PMS_P2;Temp;Humidity;BMP_temperature;BMP_pressure;BME280_temperature;BME280_humidity;BME280_pressure;Samples;Min_cycle;Max_cycle;Signal;HPM_P1;HPM_P2
2023/05/13 00:01:07;;;;;;;24.10;14.93;;;9.80;99.90;;;;;;5010449;28;20034;-78
2023/05/13 00:03:33;;;;;;;23.20;14.80;;;9.80;99.90;;;;;;5010576;28;20061;-77
2023/05/13 00:05:59;;;;;;;24.98;14.85;;;9.80;99.90;;;;;;5008786;28;20034;-78
2023/05/13 00:08:24;;;;;;;23.92;15.23;;;9.90;99.90;;;;;;5009102;28;20486;-78
2023/05/13 00:10:50;;;;;;;24.30;14.27;;;9.90;99.90;;;;;;4992701;28;20039;-77
2023/05/13 00:13:16;;;;;;;21.95;14.75;;;9.90;99.90;;;;;;5009011;28;20089;-77
2023/05/13 00:15:41;;;;;;;22.55;13.85;;;9.90;99.90;;;;;;5009321;28;20061;-77
2023/05/13 00:18:07;;;;;;;22.40;14.77;;;9.80;99.90;;;;;;5010263;28;20035;-77
2023/05/13 00:20:33;;;;;;;22.73;14.70;;;9.80;99.90;;;;;;4992601;28;20038;-77
2023/05/13 00:22:58;;;;;;;18.27;13.80;;;9.80;99.90;;;;;;5009717;28;20066;-77
2023/05/13 00:25:24;;;;;;;22.58;14.15;;;;;;;;;;5009425;28;20039;-77
2023/05/13 00:27:51;;;;;;;21.45;14.77;;;9.80;99.90;;;;;;5009969;28;20109;-77
2023/05/13 00:30:16;;;;;;;21.15;13.48;;;9.80;99.90;;;;;;5009824;28;20022;-76
2023/05/13 00:32:42;;;;;;;20.80;13.77;;;9.80;99.90;;;;;;5009286;28;20030;-77
2023/05/13 00:35:08;;;;;;;21.02;13.73;;;9.80;99.90;;;;;;5010203;28;20043;-77
2023/05/13 00:37:34;;;;;;;22.05;13.95;;;9.80;99.90;;;;;;5009249;28;20031;-77
2023/05/13 00:40:00;;;;;;;20.40;14.02;;;9.80;99.90;;;;;;5008279;28;20492;-77
2023/05/13 00:42:26;;;;;;;20.52;14.32;;;9.80;99.90;;;;;;5008390;28;20070;-76
2023/05/13 00:44:51;;;;;;;25.30;15.32;;;9.80;99.90;;;;;;4993235;28;20397;-76
2023/05/13 00:47:17;;;;;;;24.15;14.15;;;9.80;99.90;;;;;;5010226;28;20034;-77
2023/05/13 00:49:44;;;;;;;21.38;14.43;;;9.80;99.90;;;;;;4992940;28;20494;-77
2023/05/13 00:52:11;;;;;;;21.48;14.95;;;9.80;99.90;;;;;;4991881;28;20089;-77
2023/05/13 00:54:36;;;;;;;22.63;14.43;;;9.80;99.90;;;;;;5009817;28;20050;-77
2023/05/13 00:57:02;;;;;;;22.30;15.52;;;9.80;99.90;;;;;;4990709;28;20498;-77
2023/05/13 00:59:30;;;;;;;22.58;15.10;;;9.80;99.90;;;;;;5008560;28;20044;-77
2023/05/13 01:02:07;;;;;;;22.95;15.02;;;9.80;99.90;;;;;;5009679;28;20034;-77
2023/05/13 01:04:51;;;;;;;24.88;15.82;;;9.80;99.90;;;;;;5009137;28;20041;-78
2023/05/13 01:07:37;;;;;;;28.42;17.98;;;9.80;99.90;;;;;;5007869;28;20041;-77
2023/05/13 01:10:16;;;;;;;30.58;18.42;;;9.80;99.90;;;;;;4991128;28;20041;-77
2023/05/13 01:12:45;;;;;;;26.88;18.17;;;9.80;99.90;;;;;;5008065;28;20031;-77
2023/05/13 01:15:24;;;;;;;27.50;18.25;;;9.80;99.90;;;;;;4989737;28;20046;-77
2023/05/13 01:18:12;;;;;;;28.77;18.73;;;9.80;99.90;;;;;;5008069;28;20045;-77
2023/05/13 01:20:41;;;;;;;32.05;19.25;;;9.80;99.90;;;;;;5007195;28;20375;-77
2023/05/13 01:23:08;;;;;;;31.10;19.95;;;9.80;99.90;;;;;;4990499;28;20058;-78
2023/05/13 01:25:35;;;;;;;27.65;18.02;;;9.80;99.90;;;;;;5007361;28;20035;-77
2023/05/13 01:28:01;;;;;;;27.13;19.10;;;9.80;99.90;;;;;;5008827;28;20116;-78
2023/05/13 01:30:26;;;;;;;26.73;18.85;;;9.70;99.90;;;;;;4991486;28;20043;-77
2023/05/13 01:32:53;;;;;;;28.13;18.55;;;9.70;99.90;;;;;;5008950;28;20035;-77
2023/05/13 01:35:20;;;;;;;27.65;17.80;;;9.70;99.90;;;;;;5008189;28;20386;-78
2023/05/13 01:37:47;;;;;;;27.58;18.48;;;9.70;99.90;;;;;;4991917;28;20144;-77
2023/05/13 01:40:13;;;;;;;31.98;18.77;;;9.60;99.90;;;;;;5009429;28;20038;-77
2023/05/13 01:42:39;;;;;;;26.08;17.42;;;9.70;99.90;;;;;;5008767;28;20034;-78
2023/05/13 01:45:06;;;;;;;26.80;18.20;;;9.60;99.90;;;;;;5009028;28;20034;-78
2023/05/13 01:47:31;;;;;;;32.60;18.50;;;9.60;99.90;;;;;;5009315;28;20039;-78
2023/05/13 01:49:57;;;;;;;29.65;18.95;;;9.60;99.90;;;;;;5009237;28;20040;-77
2023/05/13 01:52:22;;;;;;;27.08;18.10;;;9.60;99.90;;;;;;5009473;28;20041;-77
2023/05/13 01:54:48;;;;;;;27.58;18.02;;;9.60;99.90;;;;;;5008702;28;20046;-78
2023/05/13 01:57:14;;;;;;;33.05;19.55;;;9.60;99.90;;;;;;5007886;28;20042;-78
2023/05/13 01:59:39;;;;;;;32.00;20.17;;;9.60;99.90;;;;;;5008086;28;20033;-78
2023/05/13 02:02:05;;;;;;;28.17;17.95;;;9.60;99.90;;;;;;5008431;28;20057;-77
2023/05/13 02:04:31;;;;;;;26.58;18.35;;;9.60;99.90;;;;;;4992330;28;20034;-78
2023/05/13 02:06:56;;;;;;;29.50;18.40;;;9.60;99.90;;;;;;5007411;28;20034;-78
2023/05/13 02:09:22;;;;;;;25.40;18.08;;;9.60;99.90;;;;;;5007959;28;20089;-77
2023/05/13 02:11:48;;;;;;;26.58;18.08;;;9.60;99.90;;;;;;5008092;28;20042;-77
2023/05/13 02:14:13;;;;;;;26.92;18.55;;;9.60;99.90;;;;;;5009962;28;20030;-77
2023/05/13 02:16:39;;;;;;;24.20;18.13;;;9.60;99.90;;;;;;4993017;28;20042;-76
2023/05/13 02:19:05;;;;;;;27.00;17.65;;;9.60;99.90;;;;;;5009480;28;20085;-77
2023/05/13 02:21:31;;;;;;;26.52;17.15;;;9.60;99.90;;;;;;4993206;28;20046;-77
2023/05/13 02:23:56;;;;;;;22.67;16.13;;;9.60;99.90;;;;;;5011280;28;20027;-77
2023/05/13 02:26:22;;;;;;;24.58;16.08;;;9.50;99.90;;;;;;5009966;28;20042;-78
2023/05/13 02:28:48;;;;;;;22.92;16.30;;;9.60;99.90;;;;;;5007610;28;20038;-79
2023/05/13 02:31:14;;;;;;;25.55;16.63;;;9.50;99.90;;;;;;4993720;28;20034;-78
2023/05/13 02:33:39;;;;;;;26.20;15.80;;;9.50;99.90;;;;;;5013721;28;20026;-78
2023/05/13 02:36:05;;;;;;;26.45;15.65;;;9.60;99.90;;;;;;5013849;28;20482;-78
2023/05/13 02:38:30;;;;;;;22.92;15.13;;;9.50;99.90;;;;;;5013243;28;20038;-78
2023/05/13 02:40:56;;;;;;;22.88;15.65;;;9.50;99.90;;;;;;5011623;28;20045;-78
2023/05/13 02:43:23;;;;;;;22.13;15.18;;;9.60;99.90;;;;;;5011846;28;20038;-78
2023/05/13 02:45:49;;;;;;;21.23;14.85;;;9.50;99.90;;;;;;5011818;28;20035;-78
2023/05/13 02:48:15;;;;;;;26.40;16.75;;;9.50;99.90;;;;;;5011440;28;20034;-78
2023/05/13 02:50:41;;;;;;;21.73;16.15;;;9.50;99.90;;;;;;5011942;28;20041;-78
2023/05/13 02:53:06;;;;;;;25.27;16.10;;;9.60;99.90;;;;;;5010890;28;20058;-79
2023/05/13 02:55:32;;;;;;;21.55;15.65;;;9.60;99.90;;;;;;5011258;28;20034;-79
2023/05/13 02:57:58;;;;;;;25.02;16.17;;;9.60;99.90;;;;;;4995586;28;20050;-81
2023/05/13 03:00:23;;;;;;;26.20;16.70;;;9.60;99.90;;;;;;5012520;28;20062;-81
2023/05/13 03:02:49;;;;;;;23.67;16.08;;;9.60;99.90;;;;;;5010787;28;20037;-81
2023/05/13 03:05:15;;;;;;;22.85;16.27;;;9.60;99.90;;;;;;5012877;28;20035;-80
2023/05/13 03:07:41;;;;;;;26.20;16.67;;;9.60;99.90;;;;;;5012667;28;20038;-81
2023/05/13 03:10:07;;;;;;;23.23;16.50;;;9.60;99.90;;;;;;5012138;28;20030;-80
2023/05/13 03:12:33;;;;;;;24.75;16.30;;;9.60;99.90;;;;;;5012366;28;20089;-80
2023/05/13 03:14:58;;;;;;;24.92;16.80;;;9.60;99.90;;;;;;5010678;28;20022;-80
2023/05/13 03:17:24;;;;;;;22.70;15.35;;;9.60;99.90;;;;;;4993783;28;20124;-80
2023/05/13 03:19:50;;;;;;;25.42;17.02;;;9.60;99.90;;;;;;4994948;28;20043;-80
2023/05/13 03:22:16;;;;;;;21.20;16.50;;;9.60;99.90;;;;;;5011913;28;20062;-80
2023/05/13 03:24:43;;;;;;;28.40;17.55;;;9.60;99.90;;;;;;4994040;28;20031;-81
2023/05/13 03:27:08;;;;;;;24.38;17.27;;;9.60;99.90;;;;;;5011724;28;20038;-80
2023/05/13 03:29:34;;;;;;;23.05;16.73;;;9.60;99.90;;;;;;5011771;28;20040;-80
2023/05/13 03:32:00;;;;;;;25.08;16.58;;;9.60;99.90;;;;;;5010841;28;20035;-82
2023/05/13 03:34:25;;;;;;;24.08;16.40;;;9.60;99.90;;;;;;5011595;28;20165;-80
2023/05/13 03:36:51;;;;;;;29.83;17.52;;;9.60;99.90;;;;;;4994111;28;20506;-82
2023/05/13 03:39:17;;;;;;;21.05;16.45;;;9.60;99.90;;;;;;5011334;28;20034;-80
2023/05/13 03:41:43;;;;;;;26.33;17.27;;;9.60;99.90;;;;;;5009933;28;20466;-80
2023/05/13 03:44:08;;;;;;;23.65;16.40;;;9.60;99.90;;;;;;5011271;28;20034;-80
2023/05/13 03:46:34;;;;;;;23.45;15.90;;;9.60;99.90;;;;;;5011022;28;20117;-81
2023/05/13 03:48:59;;;;;;;22.33;17.02;;;9.60;99.90;;;;;;5010724;28;20034;-80
2023/05/13 03:51:25;;;;;;;27.50;17.38;;;9.60;99.90;;;;;;5011811;28;20035;-79
2023/05/13 03:53:51;;;;;;;24.02;17.85;;;9.70;99.90;;;;;;5011404;28;20524;-79
2023/05/13 03:56:16;;;;;;;23.48;16.77;;;9.60;99.90;;;;;;5011400;28;20042;-80
2023/05/13 03:58:42;;;;;;;25.90;16.48;;;9.70;99.90;;;;;;4993856;28;20050;-80
2023/05/13 04:01:07;;;;;;;26.17;16.58;;;9.60;99.90;;;;;;5010686;28;20228;-80
2023/05/13 04:03:33;;;;;;;24.83;16.10;;;9.70;99.90;;;;;;5008406;28;20035;-79
2023/05/13 04:05:59;;;;;;;23.92;16.85;;;9.70;99.90;;;;;;5010089;28;20053;-79
2023/05/13 04:08:25;;;;;;;23.30;16.67;;;9.70;99.90;;;;;;4992410;28;20038;-79
2023/05/13 04:10:51;;;;;;;25.52;16.85;;;9.70;99.90;;;;;;5010521;28;20030;-80
2023/05/13 04:13:17;;;;;;;25.48;16.33;;;9.70;99.90;;;;;;5010373;28;20085;-80
2023/05/13 04:15:43;;;;;;;22.73;15.38;;;9.70;99.90;;;;;;5009784;28;20038;-78
2023/05/13 04:18:08;;;;;;;25.92;16.15;;;9.70;99.90;;;;;;5009244;28;20049;-80
2023/05/13 04:20:37;;;;;;;23.00;15.43;;;9.70;99.90;;;;;;5009496;28;20042;-79
2023/05/13 04:23:03;;;;;;;22.77;16.42;;;9.70;99.90;;;;;;4992505;28;20101;-80
2023/05/13 04:25:29;;;;;;;22.20;16.27;;;9.70;99.90;;;;;;5009157;28;20045;-79
2023/05/13 04:27:54;;;;;;;22.83;16.13;;;9.70;99.90;;;;;;5009034;28;20085;-80
2023/05/13 04:30:20;;;;;;;25.00;15.75;;;9.80;99.90;;;;;;5010126;28;20046;-79
2023/05/13 04:32:46;;;;;;;22.23;15.95;;;9.80;99.90;;;;;;5009627;28;20035;-79
2023/05/13 04:35:11;;;;;;;22.55;16.40;;;9.80;99.90;;;;;;5009095;28;20065;-78
2023/05/13 04:37:37;;;;;;;26.13;16.60;;;9.80;99.90;;;;;;5008880;28;20073;-80
2023/05/13 04:40:03;;;;;;;23.20;15.35;;;9.80;99.90;;;;;;5008074;28;20030;-79
2023/05/13 04:42:29;;;;;;;24.48;15.90;;;9.80;99.90;;;;;;5008971;28;20470;-79
2023/05/13 04:44:54;;;;;;;24.30;16.27;;;9.80;99.90;;;;;;4991672;28;20038;-79
2023/05/13 04:47:21;;;;;;;23.08;16.10;;;9.90;99.90;;;;;;5009300;28;20030;-79
2023/05/13 04:49:47;;;;;;;25.02;17.25;;;9.80;99.90;;;;;;5008091;28;20031;-79
2023/05/13 04:52:13;;;;;;;26.27;16.73;;;9.90;99.90;;;;;;5006957;28;20034;-79
2023/05/13 04:54:38;;;;;;;26.48;16.17;;;9.90;99.90;;;;;;4991700;28;20085;-80
2023/05/13 04:57:05;;;;;;;24.23;16.85;;;9.90;99.90;;;;;;5010175;28;20034;-79
2023/05/13 04:59:31;;;;;;;25.83;17.20;;;9.90;99.90;;;;;;4993049;28;20031;-80
2023/05/13 05:01:57;;;;;;;25.65;16.55;;;9.90;99.90;;;;;;5010607;28;20030;-81
2023/05/13 05:04:24;;;;;;;25.38;17.13;;;10.00;99.90;;;;;;5012962;28;20030;-82
2023/05/13 05:06:49;;;;;;;22.73;16.73;;;9.90;99.90;;;;;;5016281;28;20097;-84
2023/05/13 05:09:16;;;;;;;28.40;16.90;;;10.00;99.90;;;;;;5014053;28;20039;-83
2023/05/13 05:11:42;;;;;;;24.92;18.02;;;10.00;99.90;;;;;;5014067;28;20042;-82
2023/05/13 05:14:08;;;;;;;25.13;15.60;;;10.00;99.90;;;;;;5016313;28;20187;-83
2023/05/13 05:24:20;;;;;;;23.70;16.52;;;10.00;99.90;;;;;;5295244;23;20073;-82
2023/05/13 05:26:46;;;;;;;25.55;18.17;;;10.00;99.90;;;;;;5197146;22;20075;-84
2023/05/13 05:29:12;;;;;;;26.10;18.42;;;;;;;;;;5082004;22;20086;-82
2023/05/13 05:31:37;;;;;;;22.80;17.38;;;10.00;99.90;;;;;;5295716;22;20020;-80
2023/05/13 05:34:03;;;;;;;25.33;18.58;;;10.00;99.90;;;;;;5268578;22;20049;-83
2023/05/13 05:36:29;;;;;;;24.52;17.38;;;10.00;99.90;;;;;;5419588;23;20050;-84
2023/05/13 05:38:54;;;;;;;22.67;17.50;;;10.00;99.90;;;;;;5254295;22;20057;-81
2023/05/13 05:41:21;;;;;;;25.50;17.95;;;10.00;99.90;;;;;;5159468;22;20060;-80
2023/05/13 05:43:47;;;;;;;25.45;17.30;;;10.00;99.90;;;;;;5055113;28;20476;-83
2023/05/13 05:46:12;;;;;;;27.05;18.27;;;10.10;99.90;;;;;;5054599;28;20029;-81
2023/05/13 05:48:38;;;;;;;26.98;18.75;;;10.10;99.90;;;;;;5028734;28;20041;-79
2023/05/13 05:51:04;;;;;;;26.17;18.80;;;10.10;99.90;;;;;;5047143;28;20033;-80
2023/05/13 05:53:30;;;;;;;25.00;16.48;;;10.20;99.90;;;;;;5029095;28;20446;-80
2023/05/13 05:55:56;;;;;;;23.70;17.58;;;10.20;99.90;;;;;;5029588;28;20033;-79
2023/05/13 05:58:22;;;;;;;24.90;16.92;;;10.20;99.90;;;;;;5033938;28;20128;-82
2023/05/13 06:00:47;;;;;;;20.48;15.43;;;10.30;99.90;;;;;;5049136;28;20034;-83
2023/05/13 06:05:49;;;;;;;22.42;16.33;;;;;;;;;;5167975;22;20056;-64
2023/05/13 06:08:15;;;;;;;23.70;15.90;;;10.30;99.90;;;;;;5073916;28;20029;-64
2023/05/13 06:10:40;;;;;;;20.48;16.33;;;10.50;99.90;;;;;;5073567;28;20107;-64
2023/05/13 06:13:06;;;;;;;21.27;15.50;;;10.50;99.90;;;;;;5084176;28;20088;-81
2023/05/13 06:15:32;;;;;;;24.15;16.05;;;10.50;99.90;;;;;;5088078;28;20090;-80
2023/05/13 06:17:57;;;;;;;18.08;14.13;;;10.50;99.90;;;;;;5086605;28;20463;-80
2023/05/13 06:20:23;;;;;;;20.75;16.02;;;10.40;99.90;;;;;;5087437;28;20040;-81
2023/05/13 06:22:48;;;;;;;21.77;15.00;;;10.40;99.90;;;;;;5087024;28;20029;-80
2023/05/13 06:25:14;;;;;;;20.73;14.98;;;10.40;99.90;;;;;;5084391;28;20048;-80
2023/05/13 06:27:40;;;;;;;19.15;14.82;;;10.40;99.90;;;;;;5068841;28;20087;-80
2023/05/13 06:30:06;;;;;;;19.33;14.98;;;10.40;99.90;;;;;;5069129;28;20041;-80
2023/05/13 06:32:32;;;;;;;19.27;15.55;;;10.30;99.90;;;;;;5069709;28;20033;-83
2023/05/13 06:34:57;;;;;;;19.17;14.88;;;10.30;99.90;;;;;;5086119;28;20111;-82
2023/05/13 06:37:23;;;;;;;21.60;14.82;;;10.30;99.90;;;;;;5087526;28;20159;-82
2023/05/13 06:39:49;;;;;;;24.52;16.13;;;10.30;99.90;;;;;;5069273;28;20037;-83
2023/05/13 06:42:14;;;;;;;21.55;16.25;;;10.30;99.90;;;;;;5089785;28;20041;-82
2023/05/13 06:44:40;;;;;;;22.55;16.63;;;10.30;99.90;;;;;;5070886;28;20059;-83
2023/05/13 06:47:07;;;;;;;18.05;15.23;;;10.40;99.90;;;;;;5087161;28;20037;-83
2023/05/13 06:49:33;;;;;;;22.73;16.63;;;10.40;99.90;;;;;;5078373;28;20037;-82
2023/05/13 06:51:58;;;;;;;24.27;16.10;;;10.40;99.90;;;;;;5083235;28;20035;-83
2023/05/13 06:54:25;;;;;;;21.48;15.32;;;10.50;99.90;;;;;;5064514;28;20039;-82
2023/05/13 06:56:52;;;;;;;20.85;16.92;;;10.50;99.90;;;;;;5068322;28;20472;-82
2023/05/13 06:59:19;;;;;;;19.88;15.20;;;10.50;99.90;;;;;;5064154;28;20037;-82
2023/05/13 07:01:44;;;;;;;23.30;16.08;;;10.60;99.90;;;;;;5065895;28;20033;-82
2023/05/13 07:04:11;;;;;;;19.58;15.98;;;10.60;99.90;;;;;;5083265;28;20044;-83
2023/05/13 07:06:36;;;;;;;19.60;13.65;;;10.70;99.90;;;;;;5059935;28;20046;-82
2023/05/13 07:09:02;;;;;;;20.95;15.40;;;10.90;99.90;;;;;;5075779;28;20099;-84
2023/05/13 07:11:28;;;;;;;17.40;14.80;;;11.00;99.90;;;;;;5080737;28;20088;-82
2023/05/13 07:13:54;;;;;;;18.33;14.35;;;11.10;99.90;;;;;;5082669;28;20033;-83
2023/05/13 07:16:20;;;;;;;17.10;13.00;;;11.10;99.90;;;;;;5082474;28;20113;-83
2023/05/13 07:18:45;;;;;;;16.45;13.30;;;11.20;99.90;;;;;;5090423;28;20070;-82
2023/05/13 07:21:12;;;;;;;16.95;12.57;;;11.10;99.90;;;;;;5073970;28;20039;-83
2023/05/13 07:23:38;;;;;;;18.42;13.15;;;11.10;99.90;;;;;;5087958;28;20041;-83
2023/05/13 07:26:04;;;;;;;14.68;12.10;;;11.20;99.90;;;;;;5072068;28;20044;-83
2023/05/13 07:28:29;;;;;;;16.15;12.80;;;11.10;99.90;;;;;;5137315;22;20056;-84
2023/05/13 07:30:55;;;;;;;17.00;12.85;;;11.10;99.90;;;;;;5091851;28;20448;-84
2023/05/13 07:33:21;;;;;;;21.95;13.05;;;11.00;99.90;;;;;;5091538;28;20039;-84
2023/05/13 07:35:46;;;;;;;19.30;13.18;;;10.90;99.90;;;;;;5072593;28;20075;-83
2023/05/13 07:38:12;;;;;;;16.67;13.40;;;11.00;99.90;;;;;;5085620;28;20067;-83
2023/05/13 07:40:37;;;;;;;16.70;13.32;;;11.00;99.90;;;;;;5083315;28;20144;-83
2023/05/13 07:43:03;;;;;;;18.40;13.70;;;11.00;99.90;;;;;;5083074;28;20028;-83
2023/05/13 07:45:29;;;;;;;17.35;13.95;;;11.00;99.90;;;;;;5062437;28;20032;-84
2023/05/13 07:47:55;;;;;;;21.45;14.77;;;11.00;99.90;;;;;;5067618;28;20043;-83
2023/05/13 07:50:20;;;;;;;18.52;13.98;;;11.00;99.90;;;;;;5069987;28;20035;-83
2023/05/13 07:52:48;;;;;;;19.60;14.63;;;11.00;99.90;;;;;;5062795;28;20032;-84
2023/05/13 07:55:14;;;;;;;17.67;14.13;;;11.10;99.90;;;;;;5059815;28;20029;-85
2023/05/13 07:57:40;;;;;;;17.88;13.80;;;11.20;99.90;;;;;;5077817;28;20037;-84
2023/05/13 08:00:06;;;;;;;19.30;13.85;;;11.30;99.90;;;;;;5069100;28;20392;-83
2023/05/13 08:02:33;;;;;;;16.77;13.50;;;11.20;99.90;;;;;;5072836;28;20056;-84
2023/05/13 08:05:00;;;;;;;20.38;14.10;;;11.20;99.90;;;;;;5088863;28;20086;-84
2023/05/13 08:07:25;;;;;;;18.52;14.35;;;11.20;99.90;;;;;;5074901;28;20039;-84
2023/05/13 08:09:51;;;;;;;17.35;14.25;;;11.20;99.90;;;;;;5073870;28;20095;-84
2023/05/13 08:12:17;;;;;;;18.70;15.32;;;11.20;99.90;;;;;;5084037;28;20039;-85
2023/05/13 08:14:42;;;;;;;19.27;14.52;;;11.30;99.90;;;;;;5079963;28;20037;-84
2023/05/13 08:17:08;;;;;;;18.38;14.80;;;11.40;99.90;;;;;;5079287;28;20101;-85
2023/05/13 08:19:35;;;;;;;21.83;15.00;;;11.40;99.90;;;;;;5068170;28;20047;-83
2023/05/13 08:22:01;;;;;;;19.45;15.43;;;11.40;99.90;;;;;;5082496;28;20036;-83
2023/05/13 08:24:26;;;;;;;21.95;15.60;;;11.50;99.90;;;;;;5082518;28;20029;-84
2023/05/13 08:26:52;;;;;;;20.00;15.63;;;11.60;99.90;;;;;;5090877;28;20032;-84
2023/05/13 08:29:17;;;;;;;17.83;14.40;;;11.60;99.90;;;;;;5081518;28;20554;-83
2023/05/13 08:31:43;;;;;;;23.42;16.30;;;11.60;99.90;;;;;;5086594;28;20033;-85
2023/05/13 08:34:09;;;;;;;18.38;15.43;;;11.70;99.90;;;;;;5077725;28;20091;-88
2023/05/13 08:36:34;;;;;;;20.38;15.35;;;11.60;99.90;;;;;;5060668;28;20464;-84
2023/05/13 08:39:00;;;;;;;21.13;15.48;;;11.60;99.90;;;;;;5074288;28;20048;-86
2023/05/13 08:41:26;;;;;;;21.30;15.27;;;11.40;99.90;;;;;;5082079;28;20055;-86
2023/05/13 08:43:53;;;;;;;25.85;16.85;;;11.30;99.90;;;;;;5081574;28;20035;-86
2023/05/13 08:46:21;;;;;;;22.30;15.52;;;11.30;99.90;;;;;;5095874;28;20042;-84
2023/05/13 08:48:47;;;;;;;21.63;16.13;;;11.30;99.90;;;;;;5082508;28;20043;-85
2023/05/13 08:51:13;;;;;;;22.73;15.50;;;11.30;99.90;;;;;;5091667;28;20060;-83
2023/05/13 08:53:39;;;;;;;22.65;15.23;;;11.30;99.90;;;;;;5078306;28;20400;-86
2023/05/13 08:56:07;;;;;;;26.80;15.82;;;11.30;99.90;;;;;;5086523;28;20074;-85
2023/05/13 08:58:32;;;;;;;26.15;16.30;;;11.20;99.90;;;;;;5076248;28;20068;-81
2023/05/13 09:00:58;;;;;;;19.33;14.70;;;11.20;99.90;;;;;;5096137;28;20039;-83
2023/05/13 09:03:26;;;;;;;27.52;14.75;;;11.10;99.90;;;;;;5077740;28;20013;-81
2023/05/13 09:05:52;;;;;;;24.80;14.13;;;11.10;99.90;;;;;;5088657;28;20039;-84
2023/05/13 09:08:17;;;;;;;24.80;15.18;;;11.10;99.90;;;;;;5079075;28;20037;-84
2023/05/13 09:10:43;;;;;;;19.40;12.63;;;11.20;99.90;;;;;;5081024;28;20056;-85
2023/05/13 09:13:11;;;;;;;17.30;12.23;;;11.20;99.90;;;;;;5083809;28;20043;-85
2023/05/13 09:15:40;;;;;;;19.52;13.18;;;11.20;99.90;;;;;;5078595;28;20051;-84
2023/05/13 09:18:06;;;;;;;16.58;11.88;;;11.30;99.90;;;;;;5060079;28;20032;-79
2023/05/13 09:20:33;;;;;;;18.90;12.63;;;11.40;99.90;;;;;;5058042;28;20036;-84
2023/05/13 09:23:06;;;;;;;15.18;11.25;;;11.90;99.90;;;;;;5057440;28;20472;-83
2023/05/13 09:25:32;;;;;;;15.63;10.90;;;12.50;99.90;;;;;;5079829;28;20068;-83
2023/05/13 09:27:59;;;;;;;11.20;9.50;;;13.00;99.90;;;;;;5074570;28;20083;-84
2023/05/13 09:30:37;;;;;;;11.98;9.13;;;13.40;99.90;;;;;;5057232;28;20063;-83
2023/05/13 09:33:18;;;;;;;14.63;9.23;;;13.50;99.90;;;;;;5074500;28;20408;-79
2023/05/13 09:35:52;;;;;;;11.98;9.43;;;13.50;99.90;;;;;;5056313;28;20056;-80
2023/05/13 09:38:25;;;;;;;15.30;9.15;;;13.50;99.90;;;;;;5056644;28;20491;-85
2023/05/13 09:40:51;;;;;;;11.20;8.77;;;13.60;99.90;;;;;;5056751;28;20071;-87
2023/05/13 09:43:19;;;;;;;12.02;8.68;;;13.90;99.90;;;;;;5074651;28;20029;-80
2023/05/13 09:45:45;;;;;;;11.25;8.95;;;14.10;99.90;;;;;;5056995;28;20036;-85
2023/05/13 09:48:10;;;;;;;10.95;7.97;;;14.30;99.90;;;;;;5056968;28;20051;-82
2023/05/13 09:50:47;;;;;;;10.25;8.52;;;14.40;99.90;;;;;;5057752;28;20490;-87
2023/05/13 09:53:12;;;;;;;13.07;9.50;;;14.40;99.90;;;;;;5057328;28;20028;-87
2023/05/13 09:55:45;;;;;;;9.85;8.68;;;14.30;99.90;;;;;;5057099;28;20124;-81
2023/05/13 09:58:11;;;;;;;13.85;8.30;;;14.00;99.90;;;;;;5057131;28;20036;-74
2023/05/13 10:00:41;;;;;;;10.82;8.20;;;13.80;99.90;;;;;;5056567;28;20036;-60
2023/05/13 10:03:08;;;;;;;10.48;7.95;;;13.90;99.90;;;;;;5073921;28;20112;-60
2023/05/13 10:05:34;;;;;;;10.60;7.97;;;14.00;99.90;;;;;;5074039;28;20432;-60
2023/05/13 10:08:01;;;;;;;9.85;8.35;;;14.00;99.90;;;;;;5074823;28;20067;-65
2023/05/13 10:10:29;;;;;;;11.93;7.97;;;14.20;99.90;;;;;;5058102;28;20482;-64
2023/05/13 10:13:02;;;;;;;9.95;7.70;;;14.20;99.90;;;;;;5074137;28;20028;-63
2023/05/13 10:15:28;;;;;;;13.48;8.30;;;14.40;99.90;;;;;;5073804;28;20033;-64
2023/05/13 10:17:54;;;;;;;10.27;7.45;;;14.50;99.90;;;;;;5055890;28;20139;-60
2023/05/13 10:20:21;;;;;;;9.73;7.57;;;14.20;99.90;;;;;;5073366;28;20052;-60
2023/05/13 10:22:49;;;;;;;8.95;7.53;;;14.10;99.90;;;;;;5073881;28;20029;-60
2023/05/13 10:25:15;;;;;;;10.63;7.88;;;13.80;99.90;;;;;;5073408;28;20495;-72
2023/05/13 10:27:42;;;;;;;11.90;8.48;;;13.70;99.90;;;;;;5082213;28;20037;-83
2023/05/13 10:30:08;;;;;;;11.77;8.20;;;12.90;99.90;;;;;;5088029;28;20025;-76
2023/05/13 10:32:37;;;;;;;11.02;9.45;;;12.70;99.90;;;;;;5062465;28;20403;-77
2023/05/13 10:35:15;;;;;;;12.23;8.80;;;12.50;99.90;;;;;;5065443;28;20040;-80
2023/05/13 10:38:02;;;;;;;14.25;10.00;;;12.40;99.90;;;;;;5060116;28;21666;-79
2023/05/13 10:40:46;;;;;;;12.05;8.73;;;12.40;99.90;;;;;;5053540;28;20041;-80
2023/05/13 10:43:22;;;;;;;10.95;8.18;;;12.40;99.90;;;;;;5054360;28;20496;-79
2023/05/13 10:45:59;;;;;;;12.73;9.23;;;12.30;99.90;;;;;;5037398;28;20399;-79
2023/05/13 10:48:25;;;;;;;12.00;9.10;;;12.20;99.90;;;;;;5066715;28;20120;-79
2023/05/13 10:50:55;;;;;;;10.35;8.48;;;12.10;99.90;;;;;;5079617;28;20052;-80
2023/05/13 10:53:27;;;;;;;15.60;9.48;;;12.10;99.90;;;;;;5061421;28;20123;-79
2023/05/13 10:55:58;;;;;;;12.82;9.65;;;12.20;99.90;;;;;;5078463;28;20478;-80
2023/05/13 10:58:36;;;;;;;13.90;9.73;;;12.10;99.90;;;;;;5081252;28;20037;-80
2023/05/13 11:01:13;;;;;;;12.43;9.35;;;12.00;99.90;;;;;;5063908;28;20041;-80
2023/05/13 11:03:39;;;;;;;14.90;10.15;;;12.00;99.90;;;;;;5079272;28;20029;-80
2023/05/13 11:06:18;;;;;;;12.35;9.38;;;12.10;99.90;;;;;;5059602;28;20033;-80
2023/05/13 11:08:48;;;;;;;15.88;9.52;;;12.10;99.90;;;;;;5059716;28;20127;-80
2023/05/13 11:11:21;;;;;;;12.43;9.50;;;12.10;99.90;;;;;;5079058;28;20118;-80
2023/05/13 11:14:14;;;;;;;12.15;10.27;;;12.00;99.90;;;;;;5061182;28;20035;-80
2023/05/13 11:17:04;;;;;;;11.07;9.23;;;12.00;99.90;;;;;;5056254;28;20060;-79
2023/05/13 11:19:34;;;;;;;13.23;9.18;;;12.00;99.90;;;;;;5084691;28;20056;-79
2023/05/13 11:22:12;;;;;;;12.40;9.57;;;11.90;99.90;;;;;;5063201;28;20064;-80
2023/05/13 11:24:38;;;;;;;16.13;10.73;;;12.00;99.90;;;;;;5078592;28;20037;-81
2023/05/13 11:27:15;;;;;;;14.00;10.23;;;12.00;99.90;;;;;;5080763;28;20486;-80
2023/05/13 11:29:55;;;;;;;13.90;9.70;;;11.90;99.90;;;;;;5062138;28;20411;-60
2023/05/13 11:32:58;;;;;;;13.88;9.20;;;12.00;99.90;;;;;;5076801;28;20037;-60
2023/05/13 11:35:25;;;;;;;13.68;9.57;;;12.20;99.90;;;;;;5076187;28;20043;-64
2023/05/13 11:37:51;;;;;;;16.52;9.93;;;12.40;99.90;;;;;;5058688;28;20041;-79
2023/05/13 11:40:26;;;;;;;14.95;9.15;;;12.50;99.90;;;;;;5058451;28;20069;-78
2023/05/13 11:42:52;;;;;;;11.23;9.25;;;12.60;99.90;;;;;;5058723;28;20141;-78
2023/05/13 11:45:19;;;;;;;12.95;8.40;;;12.70;99.90;;;;;;5076379;28;20031;-76
2023/05/13 11:47:45;;;;;;;11.10;9.05;;;12.50;99.90;;;;;;5064799;28;20041;-76
2023/05/13 11:50:22;;;;;;;11.25;9.20;;;12.40;99.90;;;;;;5079090;28;20182;-78
2023/05/13 11:52:56;;;;;;;11.80;8.63;;;12.40;99.90;;;;;;5059720;28;20036;-77
2023/05/13 11:55:25;;;;;;;13.93;8.55;;;12.40;99.90;;;;;;5076175;28;20051;-79
2023/05/13 11:57:51;;;;;;;12.80;8.88;;;12.50;99.90;;;;;;5076296;28;20039;-78
2023/05/13 12:00:22;;;;;;;10.05;8.50;;;12.60;99.90;;;;;;5058078;28;20045;-77
2023/05/13 12:02:49;;;;;;;9.40;8.25;;;12.70;99.90;;;;;;5074995;28;20032;-77
2023/05/13 12:05:14;;;;;;;11.55;8.80;;;12.80;99.90;;;;;;5058002;28;20506;-76
2023/05/13 12:07:40;;;;;;;11.52;8.77;;;12.70;99.90;;;;;;5058028;28;20041;-78
2023/05/13 12:10:06;;;;;;;16.83;8.70;;;12.70;99.90;;;;;;5063207;28;20067;-79
2023/05/13 12:12:36;;;;;;;9.73;8.15;;;12.50;99.90;;;;;;5062499;28;20390;-80
2023/05/13 12:15:04;;;;;;;11.00;8.63;;;12.50;99.90;;;;;;5077780;28;20039;-78
2023/05/13 12:17:30;;;;;;;12.15;8.32;;;12.50;99.90;;;;;;5080711;28;20101;-78
2023/05/13 12:20:12;;;;;;;11.02;8.45;;;12.50;99.90;;;;;;5080770;28;20025;-78
2023/05/13 12:22:44;;;;;;;11.65;8.50;;;12.60;99.90;;;;;;5059784;28;20029;-79
2023/05/13 12:25:34;;;;;;;9.40;7.85;;;12.70;99.90;;;;;;5075604;28;20075;-78
2023/05/13 12:28:19;;;;;;;9.82;7.78;;;13.00;99.90;;;;;;5057322;28;20597;-79
2023/05/13 12:30:49;;;;;;;9.80;7.32;;;13.30;99.90;;;;;;5075515;28;20024;-77
2023/05/13 12:33:16;;;;;;;10.95;7.03;;;13.50;99.90;;;;;;5075383;28;20044;-77
2023/05/13 12:35:43;;;;;;;8.57;7.32;;;13.40;99.90;;;;;;5075460;28;20025;-77
2023/05/13 12:38:15;;;;;;;8.82;7.38;;;13.40;99.90;;;;;;5056936;28;20086;-77
2023/05/13 12:40:40;;;;;;;11.02;7.78;;;13.30;99.90;;;;;;5058437;28;20435;-77
2023/05/13 12:43:09;;;;;;;8.32;6.82;;;13.10;99.90;;;;;;5059659;28;20036;-78
2023/05/13 12:45:38;;;;;;;11.52;7.18;;;13.10;99.90;;;;;;5057462;28;20369;-77
2023/05/13 12:48:04;;;;;;;8.90;7.38;;;13.10;99.90;;;;;;5056939;28;20037;-78